dow.com alexa rank chart, dow.com alexa rank daily changes

dow.com alexa rank chart, dow.com alexa rank daily changes

dow.com
Actual rank:
177 191

RANK HISTORY

Date Rank Diff
2018/06/19 177 191 +101 130
2018/06/18 76 061 +40 578
2018/06/17 35 483 -20 753
2018/06/16 56 236 +11 205
2018/06/15 45 031 +6 271
2018/06/14 38 760 -2 579
2018/06/13 41 339 +4 873
2018/06/12 36 466 -68 321
2018/06/11 104 787 +47 471
2018/06/10 57 316 +15 406
2018/06/09 41 910 -10 542
2018/06/08 52 452 +4 372
2018/06/07 48 080 -3 290
2018/06/06 51 370 -26 740
2018/06/05 78 110 -17 063
2018/06/04 95 173 +34 828
2018/06/03 60 345 +22 599
2018/06/02 37 746 -9 139
2018/06/01 46 885 +931
2018/05/31 45 954 +10 722
2018/05/30 35 232 -5 860
2018/05/29 41 092 -85 404
2018/05/28 126 496 +89 737
2018/05/27 36 759 +6 979
2018/05/26 29 780 +2 351
2018/05/25 27 429 -17 635
2018/05/24 45 064 +6 405
2018/05/23 38 659 -80 564
2018/05/22 119 223 +71 849
2018/05/21 47 374 +7 123
2018/05/20 40 251 -9 660
2018/05/19 49 911 +8 367
2018/05/18 41 544 +8 705
2018/05/17 32 839 -15 386
2018/05/16 48 225 +7 871
2018/05/15 40 354 -52 681
2018/05/14 93 035 +47 178
2018/05/13 45 857 -633
2018/05/12 46 490 -8 489
2018/05/11 54 979 +29 872
2018/05/10 25 107 -1 823
2018/05/09 26 930 -57 378
2018/05/08 84 308 +18 605
2018/05/07 65 703 +23 887
2018/05/06 41 816 -7 046
2018/05/05 48 862 +26 713
2018/05/04 22 149 -25 622
2018/05/03 47 771 +11 566
2018/05/02 36 205 -22 045
2018/05/01 58 250 +24 812
2018/04/30 33 438 -21 209
2018/04/29 54 647 +8 525
2018/04/28 46 122 +9 293
2018/04/27 36 829 +12 782
2018/04/26 24 047 -18 540
2018/04/25 42 587 -28 927
2018/04/24 71 514 +34 685
2018/04/23 36 829 +4 678
2018/04/22 32 151 -15 054
2018/04/21 47 205 +19 583
2018/04/20 27 622

WIDGET FOR YOUR SITE

DOMAINS WITH THE NEAREST RANK

Domain Rank
crimea.ru 177 186
sukkaphap-d.com 177 187
eduportfolio.org 177 188
eluxemburgensia.lu 177 189
brazzerslove.com 177 190
dow.com 177 191
tutoring.co.kr 177 192
kemendag.go.id 177 193
autoscout24.hr 177 194
hkfsd.gov.hk 177 195
highspeedgear.com 177 196

DOMAINS WITH THE NEAREST RANK BY TLD .com

Domain Rank
titanmen.com 177 174
pngstocks.com 177 180
cafeducycliste.com 177 181
sukkaphap-d.com 177 187
brazzerslove.com 177 190
dow.com 177 191
highspeedgear.com 177 196
bikez.com 177 201
grifthost.com 177 202
fakedrivingschool.com 177 203
foodora.com 177 207